Архив погоды в Сеймчане

Метеограмма Сеймчан
Понедельник, 24 Июня
Время местн. Темп Ветер Видим Явления Облачность нижн/средн/верх Атм. давл. Влжн Точка росы ВНГО R Сост. почвы Tg s
Напр Скр Прв ур.ст ур.м изм
22:00 +8.8° З 1 - более 50 км - преимущественно облачно 744 763 +0.6 83% +6° 1.5 км - - - -
19:00 +17.6° В 2 - 50 км - преимущественно облачно 744 762 +0.2 42% +4.4° 1.5 км 0 - - -
16:00 +20.3° В,Ю-В 3 - более 50 км - преимущественно облачно 744 762 -0.3 30% +2.2° 1.5 км - - - -
13:00 +18.6° В,С-В 3 - 50 км - преимущественно облачно 744 762 -0.6 36% +3.4° 1.5 км - - - -
10:00 +17.3° З 1 - 50 км - преимущественно облачно 744 763 -0.2 48% +6.1° 1.5 км - - - -
07:00 +13.4° С-В 2 - более 50 км - облачно с прояснениями 745 763 +0.6 57% +5° более 2.5 км 0 Сухая (без трещин) +4° -
04:00 +10.4° С-В 1 - 50 км - переменная облачность 744 763 +0.8 68% +4.7° - - - - -
01:00 +13.2° В,Ю-В 3 - 50 км - преимущественно облачно 743 762 +0.8 56% +4.5° 1.5 км - - - -
Воскресенье, 23 Июня
Время местн. Темп Ветер Видим Явления Облачность нижн/средн/верх Атм. давл. Влжн Точка росы ВНГО R Сост. почвы Tg s
Напр Скр Прв ур.ст ур.м изм
22:00 +15.1° Ю-В 2 - 50 км - облачно с прояснениями 742 761 +0.8 49% +4.4° 1.5 км - - - -
19:00 +18.9° В,Ю-В 2 - 50 км - облачно с прояснениями 742 760 -0.1 34% +2.9° 1.5 км 0 - - -
16:00 +19.7° Ю-В 2 - 50 км - переменная облачность 742 760 -0.2 36% +4.1° 1.5 км - - - -
13:00 +20° В,Ю-В 2 - 50 км - облачно с прояснениями 742 760 -0.8 36% +4.6° 1.5 км - - - -
10:00 +18.8° Ю,Ю-В 2 - 50 км - преимущественно облачно 743 761 -0.4 41% +5.4° 1.5 км - - - -
07:00 +14.9° В 1 - 50 км - преимущественно облачно 743 762 +0.2 56% +6.2° 1.5 км 0 Сухая (без трещин) - -
04:00 +11.1° штиль 0 - 50 км - преимущественно облачно 743 762 +0.4 80% +7.7° 1.5 км - - - -
01:00 +10.9° штиль 0 - более 50 км - преимущественно облачно 742 761 +0.3 95% +10.1° 1.5 км - - - -
Суббота, 22 Июня
Время местн. Темп Ветер Видим Явления Облачность нижн/средн/верх Атм. давл. Влжн Точка росы ВНГО R Сост. почвы Tg s
Напр Скр Прв ур.ст ур.м изм
22:00 +13.6° штиль 0 - 50 км - преимущественно облачно 742 761 +0.2 85% +11.1° 1.5 км - - - -
19:00 +19.1° В 1 - 50 км - преимущественно облачно 742 760 -0.2 46% +7.1° 1.5 км 0 - - -
16:00 +20° В 1 - 50 км - преимущественно облачно 742 760 -0.5 39% +5.5° 1.5 км - - - -
13:00 +19.7° Ю-В 2 - 50 км - облачно с прояснениями 743 761 -0.9 40% +5.7° 1.5 км - - - -
10:00 +19.4° С-В 1 - более 50 км - переменная облачность 744 762 -0.5 38% +4.8° 1.5 км - - - -
07:00 +16.4° штиль 0 - 50 км - переменная облачность 744 762 +0.4 60% +8.6° 1.5 км 0 Влажная (без луж) - -
04:00 +10.3° штиль 0 - более 50 км - облачно с прояснениями 744 762 +0.5 99% +10.1° 1.5 км - - - -
01:00 +10° штиль 0 - 50 км - преимущественно облачно 743 762 +0.3 98% +9.7° 1.5 км - - - -
Пятница, 21 Июня
Время местн. Темп Ветер Видим Явления Облачность нижн/средн/верх Атм. давл. Влжн Точка росы ВНГО R Сост. почвы Tg s
Напр Скр Прв ур.ст ур.м изм
22:00 +12.2° штиль 0 - 50 км ливневый дождь преимущественно облачно 743 762 +0.8 94% +11.2° 1.5 км - - - -
19:00 +15.8° С 1 - 20 км - преимущественно облачно 742 761 +0.2 70% +10.4° 1.5 км 0 - - -